Time;durP1;ratioP1;P1;durP2;ratioP2;P2;SDS_P1;SDS_P2;PMS_P1;PMS_P2;Temp;Humidity;BMP_temperature;BMP_pressure;BME280_temperature;BME280_humidity;BME280_pressure;Samples;Min_cycle;Max_cycle;Signal;HPM_P1;HPM_P2
2024/03/02 00:01:22;;;;;;;0.70;0.70;;;8.70;99.90;;;;;;10524717;28;20634;-77
2024/03/02 00:06:26;;;;;;;0.50;0.50;;;8.70;99.90;;;;;;10515975;28;20548;-76
2024/03/02 00:11:28;;;;;;;0.70;0.70;;;8.70;99.90;;;;;;10530190;28;20227;-76
2024/03/02 00:16:31;;;;;;;0.60;0.60;;;8.80;99.90;;;;;;10521509;28;20199;-76
2024/03/02 00:21:35;;;;;;;0.60;0.60;;;8.80;99.90;;;;;;10524510;28;20224;-74
2024/03/02 00:26:38;;;;;;;0.50;0.50;;;8.80;99.90;;;;;;10517852;28;20689;-77
2024/03/02 00:31:41;;;;;;;0.60;0.60;;;8.80;99.90;;;;;;10505578;28;20220;-77
2024/03/02 00:36:46;;;;;;;0.50;0.50;;;8.80;99.90;;;;;;10510715;28;20200;-75
2024/03/02 00:41:48;;;;;;;0.50;0.50;;;8.70;99.90;;;;;;10512612;28;20721;-76
2024/03/02 00:46:50;;;;;;;0.50;0.50;;;8.70;99.90;;;;;;10509917;28;20685;-77
2024/03/02 00:51:55;;;;;;;0.57;0.57;;;8.60;99.90;;;;;;10501216;28;20266;-76
2024/03/02 00:56:58;;;;;;;0.50;0.50;;;8.50;99.90;;;;;;10506422;28;20246;-77
2024/03/02 01:02:01;;;;;;;0.50;0.50;;;8.40;99.90;;;;;;10520261;28;20216;-77
2024/03/02 01:07:05;;;;;;;0.50;0.50;;;8.40;99.90;;;;;;10523686;28;20204;-77
2024/03/02 01:12:08;;;;;;;0.60;0.60;;;8.40;99.90;;;;;;10505607;28;20301;-76
2024/03/02 01:17:10;;;;;;;0.50;0.50;;;8.40;99.90;;;;;;10512429;28;20209;-77
2024/03/02 01:22:14;;;;;;;0.60;0.60;;;8.40;99.90;;;;;;10505377;28;20287;-77
2024/03/02 01:27:16;;;;;;;0.60;0.60;;;8.40;99.90;;;;;;10502562;28;20724;-75
2024/03/02 01:32:19;;;;;;;0.50;0.50;;;8.50;99.90;;;;;;10516804;28;20653;-76
2024/03/02 01:37:22;;;;;;;0.70;0.70;;;8.50;99.90;;;;;;10503677;28;20200;-76
2024/03/02 01:42:25;;;;;;;0.50;0.50;;;8.50;99.90;;;;;;10506119;28;20212;-77
2024/03/02 01:47:27;;;;;;;0.60;0.60;;;8.50;99.90;;;;;;10500317;28;20246;-76
2024/03/02 01:52:31;;;;;;;0.60;0.60;;;8.40;99.90;;;;;;10515343;28;20211;-77
2024/03/02 01:57:33;;;;;;;0.60;0.60;;;8.40;99.90;;;;;;10525452;28;20228;-77
2024/03/02 02:02:36;;;;;;;0.50;0.50;;;8.30;99.90;;;;;;10504054;28;20213;-75
2024/03/02 02:07:41;;;;;;;0.50;0.50;;;8.20;99.90;;;;;;10495535;28;20246;-77
2024/03/02 02:12:43;;;;;;;0.50;0.50;;;8.10;99.90;;;;;;10514033;28;20709;-77
2024/03/02 02:17:46;;;;;;;0.50;0.50;;;7.90;99.90;;;;;;10517900;28;20317;-76
2024/03/02 02:23:00;;;;;;;0.50;0.50;;;7.80;99.90;;;;;;10514534;28;20540;-76
2024/03/02 02:28:03;;;;;;;0.60;0.60;;;7.70;99.90;;;;;;10536987;28;20716;-76
2024/03/02 02:33:05;;;;;;;0.50;0.50;;;7.60;99.90;;;;;;10517267;28;20213;-76
2024/03/02 02:38:09;;;;;;;0.50;0.50;;;7.50;99.90;;;;;;10521078;28;20211;-76
2024/03/02 02:43:11;;;;;;;0.53;0.53;;;7.40;99.90;;;;;;10538234;28;20691;-77
2024/03/02 02:48:14;;;;;;;0.60;0.60;;;7.40;99.90;;;;;;10537956;28;20216;-77
2024/03/02 02:53:17;;;;;;;0.70;0.70;;;7.30;99.90;;;;;;10539316;28;20208;-76
2024/03/02 02:58:19;;;;;;;0.73;0.73;;;7.20;99.90;;;;;;10528186;28;20693;-76
2024/03/02 03:03:22;;;;;;;0.77;0.77;;;7.10;99.90;;;;;;10521196;28;20203;-76
2024/03/02 03:08:25;;;;;;;0.70;0.70;;;7.10;99.90;;;;;;10528655;28;20224;-77
2024/03/02 03:13:28;;;;;;;0.80;0.80;;;7.00;99.90;;;;;;10527019;28;20261;-76
2024/03/02 03:18:30;;;;;;;0.70;0.70;;;7.00;99.90;;;;;;10531339;28;20215;-77
2024/03/02 03:23:34;;;;;;;0.70;0.70;;;7.00;99.90;;;;;;10533859;28;20700;-76
2024/03/02 03:28:36;;;;;;;0.67;0.67;;;6.90;99.90;;;;;;10531656;28;20223;-76
2024/03/02 03:33:38;;;;;;;0.50;0.50;;;6.80;99.90;;;;;;10532872;28;20281;-76
2024/03/02 03:38:42;;;;;;;0.70;0.70;;;6.80;99.90;;;;;;10525269;28;20293;-77
2024/03/02 03:43:44;;;;;;;0.80;0.80;;;6.80;99.90;;;;;;10535774;28;20192;-77
2024/03/02 03:48:47;;;;;;;0.67;0.67;;;6.70;99.90;;;;;;10528275;28;20269;-76
2024/03/02 03:53:50;;;;;;;0.77;0.77;;;6.70;99.90;;;;;;10536677;28;20696;-76
2024/03/02 03:58:53;;;;;;;0.70;0.70;;;6.70;99.90;;;;;;10526733;28;20645;-77
2024/03/02 04:03:55;;;;;;;0.70;0.70;;;6.60;99.90;;;;;;10529606;28;20195;-76
2024/03/02 04:08:59;;;;;;;0.80;0.80;;;6.60;99.90;;;;;;10528088;28;20212;-76
2024/03/02 04:14:01;;;;;;;0.70;0.70;;;6.60;99.90;;;;;;10521872;28;20321;-76
2024/03/02 04:19:04;;;;;;;0.70;0.70;;;6.60;99.90;;;;;;10528827;28;20219;-75
2024/03/02 04:24:08;;;;;;;0.60;0.60;;;6.50;99.90;;;;;;10531386;28;20617;-76
2024/03/02 04:29:10;;;;;;;1.00;1.00;;;6.50;99.90;;;;;;10530208;28;20224;-76
2024/03/02 04:34:12;;;;;;;0.70;0.70;;;6.50;99.90;;;;;;10532042;28;20227;-75
2024/03/02 04:39:16;;;;;;;0.77;0.77;;;6.40;99.90;;;;;;10531603;28;20216;-76
2024/03/02 04:44:19;;;;;;;0.60;0.60;;;6.40;99.90;;;;;;10532948;28;20188;-76
2024/03/02 04:49:21;;;;;;;0.87;0.87;;;6.40;99.90;;;;;;10532196;28;20277;-76
2024/03/02 04:54:25;;;;;;;0.50;0.50;;;6.40;99.90;;;;;;10534262;28;20750;-77
2024/03/02 04:59:27;;;;;;;0.60;0.60;;;6.40;99.90;;;;;;10516532;28;20234;-76
2024/03/02 05:04:30;;;;;;;0.50;0.50;;;6.50;99.90;;;;;;10518701;28;20180;-76
2024/03/02 05:09:34;;;;;;;0.60;0.60;;;6.40;99.90;;;;;;10518438;28;20276;-76
2024/03/02 05:14:37;;;;;;;0.63;0.63;;;6.40;99.90;;;;;;10525299;28;20216;-76
2024/03/02 05:19:39;;;;;;;0.90;0.90;;;6.40;99.90;;;;;;10525376;28;20276;-75
2024/03/02 05:24:43;;;;;;;0.70;0.70;;;6.40;99.90;;;;;;10526061;28;20196;-77
2024/03/02 05:29:45;;;;;;;0.60;0.60;;;6.40;99.90;;;;;;10553340;22;20224;-82
2024/03/02 05:34:48;;;;;;;0.73;0.73;;;6.40;99.90;;;;;;10538769;28;20219;-79
2024/03/02 05:39:51;;;;;;;0.57;0.57;;;6.30;99.90;;;;;;10528212;28;20690;-82
2024/03/02 05:44:54;;;;;;;0.60;0.60;;;6.30;99.90;;;;;;10497135;28;20235;-80
2024/03/02 05:49:56;;;;;;;0.53;0.53;;;6.30;99.90;;;;;;10495649;28;20990;-82
2024/03/02 05:55:00;;;;;;;0.80;0.80;;;6.30;99.90;;;;;;10505575;28;20234;-81
2024/03/02 06:00:05;;;;;;;0.60;0.60;;;6.20;99.90;;;;;;10496799;28;20212;-83
2024/03/02 06:05:15;;;;;;;0.70;0.70;;;6.20;99.90;;;;;;10505776;28;20193;-82
2024/03/02 06:10:20;;;;;;;0.70;0.70;;;6.20;99.90;;;;;;10488379;28;20241;-80
2024/03/02 06:15:23;;;;;;;0.30;0.30;;;6.20;99.90;;;;;;10496771;28;20724;-81
2024/03/02 06:20:26;;;;;;;0.50;0.50;;;6.20;99.90;;;;;;10495933;28;20224;-80
2024/03/02 06:25:30;;;;;;;0.50;0.50;;;6.20;99.90;;;;;;10497071;28;20190;-80
2024/03/02 06:30:32;;;;;;;0.70;0.70;;;6.20;99.90;;;;;;10496737;28;20231;-81
2024/03/02 06:35:35;;;;;;;0.70;0.70;;;6.20;99.90;;;;;;10496376;28;20407;-82
2024/03/02 06:40:39;;;;;;;0.70;0.70;;;6.20;99.90;;;;;;10499406;28;20726;-81
2024/03/02 06:45:42;;;;;;;0.50;0.50;;;6.30;99.90;;;;;;10494751;28;20210;-82
2024/03/02 06:50:44;;;;;;;0.70;0.70;;;6.50;99.90;;;;;;10493248;28;20373;-78
2024/03/02 06:55:48;;;;;;;0.30;0.30;;;6.60;99.90;;;;;;10492160;28;20220;-80
2024/03/02 07:00:52;;;;;;;0.30;0.30;;;6.70;99.90;;;;;;10488691;28;20216;-81
2024/03/02 07:05:55;;;;;;;0.50;0.50;;;6.80;99.90;;;;;;10496369;28;20561;-79
2024/03/02 07:11:00;;;;;;;0.70;0.70;;;7.00;99.90;;;;;;10500964;28;20281;-82
2024/03/02 07:21:23;;;;;;;0.50;0.50;;;7.30;99.90;;;;;;10505985;28;20208;-80
2024/03/02 07:26:27;;;;;;;0.60;0.60;;;7.60;99.90;;;;;;10510772;28;20227;-80
2024/03/02 07:31:29;;;;;;;0.50;0.50;;;7.80;99.90;;;;;;10508230;28;20343;-80
2024/03/02 07:36:32;;;;;;;0.57;0.57;;;8.00;99.90;;;;;;10501628;28;20250;-81
2024/03/02 07:41:36;;;;;;;0.50;0.50;;;8.10;99.90;;;;;;10500082;28;20212;-78
2024/03/02 07:46:38;;;;;;;0.40;0.40;;;8.30;99.90;;;;;;10500856;28;20204;-81
2024/03/02 07:51:40;;;;;;;0.50;0.50;;;8.40;99.90;;;;;;10481817;28;20244;-84
2024/03/02 07:56:45;;;;;;;0.50;0.50;;;8.60;99.90;;;;;;10483480;28;20216;-81
2024/03/02 08:01:49;;;;;;;0.40;0.40;;;8.70;99.90;;;;;;10516588;28;20223;-80
2024/03/02 08:06:52;;;;;;;0.40;0.40;;;8.80;99.90;;;;;;10502451;28;20193;-83
2024/03/02 08:11:56;;;;;;;0.50;0.50;;;8.90;99.90;;;;;;10502396;28;20739;-82
2024/03/02 08:16:59;;;;;;;0.33;0.33;;;9.00;99.90;;;;;;10501494;28;20224;-81
2024/03/02 08:22:01;;;;;;;0.40;0.40;;;9.00;99.90;;;;;;10483458;28;20220;-82
2024/03/02 08:27:05;;;;;;;0.40;0.40;;;9.10;99.90;;;;;;10490333;28;20731;-80
2024/03/02 08:32:08;;;;;;;0.33;0.33;;;9.10;99.90;;;;;;10496231;28;20690;-78
2024/03/02 08:37:10;;;;;;;0.40;0.40;;;9.20;99.90;;;;;;10495223;28;20274;-81
2024/03/02 08:42:14;;;;;;;0.50;0.50;;;9.20;99.90;;;;;;10506052;28;20297;-81
2024/03/02 08:47:16;;;;;;;0.47;0.47;;;9.20;99.90;;;;;;10496777;28;20250;-81
2024/03/02 08:52:19;;;;;;;0.40;0.40;;;9.40;99.90;;;;;;10495326;28;20223;-81
2024/03/02 08:57:23;;;;;;;0.40;0.40;;;9.50;99.90;;;;;;10496672;28;20242;-81
2024/03/02 09:02:28;;;;;;;0.50;0.50;;;9.60;99.90;;;;;;10496139;28;20209;-80
2024/03/02 09:07:30;;;;;;;0.30;0.30;;;9.80;99.90;;;;;;10496344;28;20195;-79
2024/03/02 09:12:34;;;;;;;0.30;0.30;;;9.90;99.90;;;;;;10503998;28;20231;-82
2024/03/02 09:17:36;;;;;;;0.30;0.30;;;10.10;99.80;;;;;;10496600;28;20212;-82
2024/03/02 09:22:39;;;;;;;0.30;0.30;;;10.30;99.20;;;;;;10496483;28;20221;-80
2024/03/02 09:27:43;;;;;;;0.40;0.40;;;10.40;98.90;;;;;;10487915;28;20201;-82
2024/03/02 09:32:45;;;;;;;0.30;0.30;;;10.50;98.30;;;;;;10507084;28;20224;-81
2024/03/02 09:37:47;;;;;;;0.40;0.40;;;10.70;98.30;;;;;;10493560;28;20227;-80
2024/03/02 09:42:52;;;;;;;0.40;0.40;;;10.90;97.30;;;;;;10475747;28;20294;-80
2024/03/02 09:47:56;;;;;;;0.30;0.30;;;11.20;97.20;;;;;;10500541;28;20208;-82
2024/03/02 09:52:59;;;;;;;0.43;0.43;;;11.30;97.50;;;;;;10502430;28;20212;-81
2024/03/02 09:58:03;;;;;;;0.40;0.40;;;11.50;97.70;;;;;;10494524;28;20223;-79
2024/03/02 10:03:06;;;;;;;0.40;0.40;;;11.70;97.70;;;;;;10502550;28;20216;-81
2024/03/02 10:08:09;;;;;;;0.40;0.40;;;11.90;97.50;;;;;;10495448;28;20180;-81
2024/03/02 10:13:14;;;;;;;0.40;0.40;;;12.00;97.00;;;;;;10496562;28;20274;-78
2024/03/02 10:18:28;;;;;;;0.40;0.40;;;12.10;95.90;;;;;;10496357;28;20224;-80
2024/03/02 10:23:30;;;;;;;0.30;0.30;;;12.10;95.10;;;;;;10494174;28;20266;-80
2024/03/02 10:28:34;;;;;;;0.30;0.30;;;12.10;95.00;;;;;;10493061;28;20205;-80
2024/03/02 10:33:36;;;;;;;0.40;0.40;;;12.00;95.10;;;;;;10501108;28;20232;-77
2024/03/02 10:38:42;;;;;;;0.40;0.40;;;12.00;95.20;;;;;;10495834;28;20207;-79
2024/03/02 10:43:47;;;;;;;0.30;0.30;;;12.00;94.70;;;;;;10488473;28;20715;-81
2024/03/02 10:48:50;;;;;;;0.40;0.40;;;12.10;94.90;;;;;;10502219;28;20628;-81
2024/03/02 10:53:52;;;;;;;0.30;0.30;;;12.00;95.40;;;;;;10502725;28;20208;-81
2024/03/02 10:59:03;;;;;;;0.40;0.40;;;12.00;95.50;;;;;;10510115;28;20677;-81
2024/03/02 11:04:09;;;;;;;0.40;0.40;;;12.00;95.10;;;;;;10505248;28;20654;-83
2024/03/02 11:09:13;;;;;;;0.40;0.40;;;12.10;95.40;;;;;;10509395;28;20205;-80
2024/03/02 11:14:20;;;;;;;0.40;0.40;;;12.20;94.80;;;;;;10501559;28;20228;-80
2024/03/02 11:19:24;;;;;;;0.40;0.40;;;12.30;95.10;;;;;;10501967;28;20250;-81
2024/03/02 11:24:32;;;;;;;0.50;0.50;;;12.30;95.40;;;;;;10496326;28;20398;-82
2024/03/02 11:34:47;;;;;;;0.40;0.40;;;12.30;93.60;;;;;;10342329;28;20215;-78
2024/03/02 11:39:51;;;;;;;0.57;0.57;;;12.50;93.30;;;;;;10343985;28;20209;-78
2024/03/02 11:44:58;;;;;;;0.50;0.50;;;12.60;92.90;;;;;;10376928;28;20202;-77
2024/03/02 11:50:01;;;;;;;0.37;0.37;;;12.70;92.60;;;;;;10374562;28;20221;-78
2024/03/02 11:55:05;;;;;;;0.50;0.50;;;12.80;92.00;;;;;;10377714;28;20226;-78
2024/03/02 12:00:18;;;;;;;0.40;0.40;;;12.90;91.00;;;;;;10380573;28;20222;-78
2024/03/02 12:05:22;;;;;;;0.30;0.30;;;13.00;90.80;;;;;;10384913;28;20202;-78
2024/03/02 12:10:24;;;;;;;0.40;0.40;;;13.20;90.40;;;;;;10389703;28;20225;-79
2024/03/02 12:15:27;;;;;;;0.30;0.30;;;13.30;90.80;;;;;;10386024;28;20221;-78
2024/03/02 12:20:32;;;;;;;0.40;0.40;;;13.30;90.80;;;;;;10384443;28;20218;-78
2024/03/02 12:25:35;;;;;;;0.40;0.40;;;13.40;91.20;;;;;;10380091;28;20200;-78
2024/03/02 12:30:37;;;;;;;0.50;0.50;;;13.40;90.60;;;;;;10400607;28;20232;-78
2024/03/02 12:35:42;;;;;;;0.40;0.40;;;13.60;90.30;;;;;;10456027;28;20218;-78
2024/03/02 12:40:44;;;;;;;0.40;0.40;;;13.70;90.10;;;;;;10457883;28;20223;-78
2024/03/02 12:45:47;;;;;;;0.40;0.40;;;13.70;89.60;;;;;;10438191;28;20204;-79
2024/03/02 12:50:51;;;;;;;0.40;0.40;;;13.70;90.40;;;;;;10459581;28;20220;-78
2024/03/02 12:55:55;;;;;;;0.30;0.30;;;13.60;90.60;;;;;;10447134;28;20212;-78
2024/03/02 13:01:08;;;;;;;0.40;0.40;;;13.50;90.00;;;;;;10463939;28;20221;-78
2024/03/02 13:06:12;;;;;;;0.40;0.40;;;13.60;90.00;;;;;;10445380;28;20193;-78
2024/03/02 13:11:15;;;;;;;0.40;0.40;;;13.70;90.00;;;;;;10463579;28;20225;-78
2024/03/02 13:16:18;;;;;;;0.30;0.30;;;13.70;90.60;;;;;;10464674;28;20239;-79
2024/03/02 13:21:22;;;;;;;0.30;0.30;;;13.50;91.50;;;;;;10464751;28;20219;-78
2024/03/02 13:26:24;;;;;;;0.30;0.30;;;13.50;90.30;;;;;;10464721;28;20219;-78
2024/03/02 13:31:26;;;;;;;0.30;0.30;;;13.60;89.20;;;;;;10462224;28;20224;-78
2024/03/02 13:36:30;;;;;;;0.40;0.40;;;13.70;89.80;;;;;;10464811;28;20221;-78
2024/03/02 13:41:33;;;;;;;0.37;0.37;;;13.70;90.60;;;;;;10461209;28;20706;-78
2024/03/02 13:46:35;;;;;;;0.40;0.40;;;13.80;88.20;;;;;;10453954;28;20224;-78
2024/03/02 13:51:39;;;;;;;0.30;0.30;;;13.80;88.90;;;;;;10462536;28;20217;-78
2024/03/02 13:56:41;;;;;;;0.30;0.30;;;13.80;90.00;;;;;;10459304;28;20271;-79
2024/03/02 14:01:44;;;;;;;0.30;0.30;;;13.60;90.60;;;;;;10452749;28;20217;-78
2024/03/02 14:06:48;;;;;;;0.30;0.30;;;13.50;91.00;;;;;;10458313;28;20193;-78
2024/03/02 14:11:51;;;;;;;0.30;0.30;;;13.30;91.70;;;;;;10453037;28;20213;-79
2024/03/02 14:16:55;;;;;;;0.40;0.40;;;13.30;91.00;;;;;;10467718;28;20221;-78
2024/03/02 14:21:59;;;;;;;0.30;0.30;;;13.30;90.20;;;;;;10480489;28;20229;-78
2024/03/02 14:27:04;;;;;;;0.30;0.30;;;13.40;90.30;;;;;;10477866;28;20193;-78
2024/03/02 14:32:07;;;;;;;0.30;0.30;;;13.30;90.70;;;;;;10465090;28;20236;-78
2024/03/02 14:37:11;;;;;;;0.40;0.40;;;13.20;91.50;;;;;;10461131;28;20690;-78
2024/03/02 14:42:13;;;;;;;0.30;0.30;;;13.30;89.90;;;;;;10462494;28;20220;-78
2024/03/02 14:47:15;;;;;;;0.50;0.50;;;13.30;89.50;;;;;;10464766;28;20614;-78
2024/03/02 14:52:19;;;;;;;0.30;0.30;;;13.50;87.40;;;;;;10464709;28;20217;-78
2024/03/02 14:57:21;;;;;;;0.40;0.40;;;13.70;85.20;;;;;;10463144;28;20280;-78
2024/03/02 15:02:24;;;;;;;0.40;0.40;;;13.90;83.10;;;;;;10462579;28;20213;-80
2024/03/02 15:07:28;;;;;;;0.40;0.40;;;14.10;82.90;;;;;;10437971;28;20215;-79
2024/03/02 15:12:31;;;;;;;0.33;0.33;;;14.30;82.80;;;;;;10441991;28;20272;-79
2024/03/02 15:17:33;;;;;;;0.40;0.40;;;14.30;81.90;;;;;;10462633;28;20213;-79
2024/03/02 15:22:37;;;;;;;0.30;0.30;;;14.50;79.80;;;;;;10457554;28;20231;-79
2024/03/02 15:27:40;;;;;;;0.30;0.30;;;14.50;79.40;;;;;;10461875;28;20194;-78
2024/03/02 15:32:42;;;;;;;0.20;0.20;;;14.50;81.10;;;;;;10465609;28;20633;-79
2024/03/02 15:37:46;;;;;;;0.30;0.30;;;14.20;83.60;;;;;;10479054;28;20217;-79
2024/03/02 15:42:48;;;;;;;0.30;0.30;;;14.20;80.40;;;;;;10449952;28;20224;-79
2024/03/02 15:47:50;;;;;;;0.30;0.30;;;14.10;79.80;;;;;;10459920;28;20283;-79
2024/03/02 15:52:55;;;;;;;0.30;0.30;;;14.10;79.20;;;;;;10461231;28;20229;-79
2024/03/02 15:57:58;;;;;;;0.30;0.30;;;14.10;78.30;;;;;;10455030;28;20218;-79
2024/03/02 16:03:00;;;;;;;0.30;0.30;;;14.20;79.40;;;;;;10462044;28;20706;-79
2024/03/02 16:08:05;;;;;;;0.30;0.30;;;14.20;80.00;;;;;;10456400;28;20189;-79
2024/03/02 16:13:07;;;;;;;0.30;0.30;;;14.20;80.30;;;;;;10462662;28;20714;-79
2024/03/02 16:18:10;;;;;;;0.40;0.40;;;14.20;81.20;;;;;;10473946;28;20236;-78
2024/03/02 16:23:13;;;;;;;0.30;0.30;;;14.20;81.50;;;;;;10467127;28;20217;-79
2024/03/02 16:28:16;;;;;;;0.30;0.30;;;14.10;82.10;;;;;;10470757;28;20185;-80
2024/03/02 16:33:18;;;;;;;0.30;0.30;;;13.90;84.10;;;;;;10466154;28;20243;-80
2024/03/02 16:38:22;;;;;;;0.30;0.30;;;13.80;84.70;;;;;;10451728;28;20221;-80
2024/03/02 16:43:24;;;;;;;0.10;0.10;;;13.70;86.30;;;;;;10461906;28;20212;-80
2024/03/02 16:48:26;;;;;;;0.30;0.30;;;13.60;88.00;;;;;;10460176;28;20200;-80
2024/03/02 16:53:30;;;;;;;0.40;0.40;;;13.50;88.90;;;;;;10458216;28;20260;-80
2024/03/02 16:58:33;;;;;;;0.30;0.30;;;13.40;89.90;;;;;;10462116;28;20217;-80
2024/03/02 17:03:35;;;;;;;0.30;0.30;;;13.30;90.30;;;;;;10460191;28;20235;-80
2024/03/02 17:08:39;;;;;;;0.30;0.30;;;13.20;90.70;;;;;;10463091;28;20197;-80
2024/03/02 17:13:41;;;;;;;0.30;0.30;;;13.10;91.10;;;;;;10459580;28;20225;-80
2024/03/02 17:18:43;;;;;;;0.30;0.30;;;13.00;91.60;;;;;;10439756;28;20240;-80
2024/03/02 17:23:47;;;;;;;0.40;0.40;;;12.80;91.90;;;;;;10451762;28;20734;-80
2024/03/02 17:28:50;;;;;;;0.47;0.47;;;12.70;92.30;;;;;;10472750;28;20189;-80
2024/03/02 17:33:53;;;;;;;0.40;0.40;;;12.60;92.50;;;;;;10448182;28;20237;-79
2024/03/02 17:38:57;;;;;;;0.30;0.30;;;12.50;92.90;;;;;;10457926;28;20275;-79
2024/03/02 17:44:00;;;;;;;0.30;0.30;;;12.40;93.10;;;;;;10444090;28;20226;-79
2024/03/02 17:49:02;;;;;;;0.40;0.40;;;12.40;93.40;;;;;;10457257;28;20251;-79
2024/03/02 17:54:06;;;;;;;0.40;0.40;;;12.40;94.20;;;;;;10446652;28;20217;-79
2024/03/02 17:59:08;;;;;;;0.30;0.30;;;12.40;94.60;;;;;;10454407;28;20274;-79
2024/03/02 18:04:10;;;;;;;0.07;0.07;;;12.50;95.10;;;;;;10450775;28;20694;-81
2024/03/02 18:09:14;;;;;;;0.50;0.50;;;12.60;95.20;;;;;;10428724;28;20193;-81
2024/03/02 18:14:17;;;;;;;0.40;0.40;;;12.60;95.60;;;;;;10466887;28;20274;-80
2024/03/02 18:19:19;;;;;;;0.40;0.40;;;12.70;95.80;;;;;;10468417;28;20760;-81
2024/03/02 18:24:26;;;;;;;0.30;0.30;;;12.80;95.90;;;;;;10550550;22;20231;-81
2024/03/02 18:29:28;;;;;;;0.40;0.40;;;12.80;95.90;;;;;;10578218;28;20191;-79
2024/03/02 18:34:31;;;;;;;0.40;0.40;;;12.80;96.10;;;;;;10572938;28;20203;-81
2024/03/02 18:39:35;;;;;;;0.30;0.30;;;12.70;96.20;;;;;;10546417;28;20215;-80
2024/03/02 18:44:37;;;;;;;0.40;0.40;;;12.70;96.40;;;;;;10549539;28;20215;-82
2024/03/02 18:49:44;;;;;;;0.40;0.40;;;12.70;96.40;;;;;;10538374;28;20192;-81
2024/03/02 18:54:48;;;;;;;0.30;0.30;;;12.70;96.50;;;;;;10563525;28;20274;-79
2024/03/02 18:59:50;;;;;;;0.40;0.40;;;12.70;96.50;;;;;;10567874;28;20280;-79
2024/03/02 19:04:53;;;;;;;0.50;0.50;;;12.70;96.50;;;;;;10536543;28;20265;-80
2024/03/02 19:09:56;;;;;;;0.30;0.30;;;12.70;96.80;;;;;;10567863;28;20203;-78
2024/03/02 19:15:00;;;;;;;0.40;0.40;;;12.70;96.70;;;;;;10565949;28;20711;-79
2024/03/02 19:20:02;;;;;;;0.30;0.30;;;12.70;96.60;;;;;;10551764;28;20227;-78
2024/03/02 19:25:10;;;;;;;0.30;0.30;;;12.70;96.70;;;;;;10568869;28;20292;-79
2024/03/02 19:30:13;;;;;;;0.10;0.10;;;12.60;96.70;;;;;;10578342;28;20203;-80
2024/03/02 19:35:15;;;;;;;0.30;0.30;;;12.50;96.80;;;;;;10566321;28;20215;-78
2024/03/02 19:40:19;;;;;;;0.30;0.30;;;12.50;97.00;;;;;;10567082;28;20704;-79
2024/03/02 19:45:21;;;;;;;0.30;0.30;;;12.40;96.90;;;;;;10557583;28;20256;-80
2024/03/02 19:50:24;;;;;;;0.37;0.37;;;12.40;97.00;;;;;;10560993;28;20192;-79
2024/03/02 19:55:30;;;;;;;0.30;0.30;;;12.30;96.90;;;;;;10564581;28;20268;-81
2024/03/02 20:00:32;;;;;;;0.30;0.30;;;12.20;97.10;;;;;;10554504;28;20219;-80
2024/03/02 20:05:35;;;;;;;0.30;0.30;;;12.10;97.20;;;;;;10558452;28;20220;-78
2024/03/02 20:10:38;;;;;;;0.40;0.40;;;12.00;97.30;;;;;;10561414;28;20207;-79
2024/03/02 20:15:41;;;;;;;0.30;0.30;;;11.90;97.40;;;;;;10556336;28;20223;-79
2024/03/02 20:20:43;;;;;;;0.30;0.30;;;11.80;97.50;;;;;;10541145;28;20697;-79
2024/03/02 20:25:47;;;;;;;0.50;0.50;;;11.70;97.70;;;;;;10555911;28;20223;-79
2024/03/02 20:30:49;;;;;;;0.30;0.30;;;11.60;97.80;;;;;;10563495;28;20192;-80
2024/03/02 20:35:52;;;;;;;0.40;0.40;;;11.50;97.90;;;;;;10546543;28;20212;-79
2024/03/02 20:40:55;;;;;;;0.30;0.30;;;11.40;98.00;;;;;;10565459;28;20784;-80
2024/03/02 20:46:04;;;;;;;0.40;0.40;;;11.40;98.20;;;;;;10553711;28;20219;-79
2024/03/02 20:51:07;;;;;;;0.30;0.30;;;11.30;98.20;;;;;;10542216;28;20191;-79
2024/03/02 20:56:11;;;;;;;0.40;0.40;;;11.20;98.30;;;;;;10553872;28;20281;-78
2024/03/02 21:01:13;;;;;;;0.30;0.30;;;11.20;98.50;;;;;;10549184;28;20212;-76
2024/03/02 21:06:16;;;;;;;0.30;0.30;;;11.10;98.50;;;;;;10557354;28;20681;-80
2024/03/02 21:11:22;;;;;;;0.40;0.40;;;11.00;98.50;;;;;;10546202;28;20192;-77
2024/03/02 21:16:24;;;;;;;0.40;0.40;;;10.90;98.40;;;;;;10546421;28;20238;-80
2024/03/02 21:21:27;;;;;;;0.40;0.40;;;10.80;98.40;;;;;;10550610;28;20620;-78
2024/03/02 21:26:31;;;;;;;0.20;0.20;;;10.70;98.40;;;;;;10555582;28;20231;-80
2024/03/02 21:31:33;;;;;;;0.30;0.30;;;10.60;98.70;;;;;;10530698;28;20614;-80
2024/03/02 21:36:37;;;;;;;0.40;0.40;;;10.60;99.00;;;;;;10535637;28;20246;-80
2024/03/02 21:41:41;;;;;;;0.27;0.27;;;10.70;99.30;;;;;;10550934;28;20196;-77
2024/03/02 21:46:45;;;;;;;0.40;0.40;;;10.70;99.60;;;;;;10544371;28;20566;-81
2024/03/02 21:51:47;;;;;;;0.47;0.47;;;10.80;99.40;;;;;;10546758;28;20204;-79
2024/03/02 21:56:51;;;;;;;0.50;0.50;;;10.80;99.40;;;;;;10548655;28;20216;-78
2024/03/02 22:01:53;;;;;;;0.50;0.50;;;10.80;99.40;;;;;;10554613;28;20265;-80
2024/03/02 22:06:56;;;;;;;0.30;0.30;;;10.80;99.40;;;;;;10535979;28;20199;-78
2024/03/02 22:12:00;;;;;;;0.50;0.50;;;10.90;99.50;;;;;;10558722;28;20203;-78
2024/03/02 22:17:04;;;;;;;0.40;0.40;;;10.90;99.60;;;;;;10530410;28;20214;-77
2024/03/02 22:22:06;;;;;;;0.40;0.40;;;10.90;99.80;;;;;;10556699;28;20220;-78
2024/03/02 22:27:09;;;;;;;0.30;0.30;;;10.90;99.90;;;;;;10553665;28;20200;-77
2024/03/02 22:32:12;;;;;;;0.40;0.40;;;11.00;99.90;;;;;;10540688;28;20226;-79
2024/03/02 22:37:14;;;;;;;0.40;0.40;;;11.00;99.90;;;;;;10520483;28;20219;-79
2024/03/02 22:42:18;;;;;;;0.40;0.40;;;10.90;99.90;;;;;;10561916;28;20220;-77
2024/03/02 22:47:20;;;;;;;0.40;0.40;;;10.90;99.90;;;;;;10547444;28;20187;-79
2024/03/02 22:52:23;;;;;;;0.43;0.43;;;10.80;99.90;;;;;;10551172;28;20227;-77
2024/03/02 22:57:26;;;;;;;0.40;0.40;;;10.80;99.90;;;;;;10554686;28;20204;-78
2024/03/02 23:02:29;;;;;;;0.30;0.30;;;10.70;99.90;;;;;;10549669;28;20656;-80
2024/03/02 23:07:31;;;;;;;0.30;0.30;;;10.70;99.90;;;;;;10566057;28;20192;-79
2024/03/02 23:12:35;;;;;;;0.40;0.40;;;10.70;99.90;;;;;;10558505;28;20215;-78
2024/03/02 23:17:37;;;;;;;0.30;0.30;;;10.60;99.90;;;;;;10580542;28;20227;-78
2024/03/02 23:22:42;;;;;;;0.40;0.40;;;10.60;99.90;;;;;;10574658;28;20641;-78
2024/03/02 23:27:46;;;;;;;0.50;0.50;;;10.40;99.40;;;;;;10540717;28;20195;-78
2024/03/02 23:32:48;;;;;;;0.40;0.40;;;10.30;99.50;;;;;;10549773;28;20226;-78
2024/03/02 23:37:53;;;;;;;0.40;0.40;;;10.10;99.50;;;;;;10567691;28;20285;-79
2024/03/02 23:42:56;;;;;;;0.40;0.40;;;10.10;99.70;;;;;;10560336;28;20356;-79
2024/03/02 23:47:59;;;;;;;0.70;0.70;;;9.90;99.90;;;;;;10543674;28;20195;-80
2024/03/02 23:53:01;;;;;;;0.50;0.50;;;9.80;99.90;;;;;;10551915;28;20211;-80
2024/03/02 23:58:07;;;;;;;0.50;0.50;;;9.80;99.90;;;;;;10569997;28;20684;-78
